sensor_id;sensor_type;location;lat;lon;timestamp;P1;durP1;ratioP1;P2;durP2;ratioP2
73627;SDS011;61923;51.846;5.856;2022-12-07T00:01:35;1.10;;;0.63;;
73627;SDS011;61923;51.846;5.856;2022-12-07T00:04:04;1.88;;;0.68;;
73627;SDS011;61923;51.846;5.856;2022-12-07T00:06:37;2.03;;;0.80;;
73627;SDS011;61923;51.846;5.856;2022-12-07T00:09:05;2.13;;;0.80;;
73627;SDS011;61923;51.846;5.856;2022-12-07T00:11:34;2.90;;;0.80;;
73627;SDS011;61923;51.846;5.856;2022-12-07T00:14:01;2.47;;;1.00;;
73627;SDS011;61923;51.846;5.856;2022-12-07T00:16:30;3.88;;;1.13;;
73627;SDS011;61923;51.846;5.856;2022-12-07T00:18:57;2.40;;;1.00;;
73627;SDS011;61923;51.846;5.856;2022-12-07T00:21:27;1.30;;;0.80;;
73627;SDS011;61923;51.846;5.856;2022-12-07T00:23:54;1.30;;;0.90;;
73627;SDS011;61923;51.846;5.856;2022-12-07T00:26:35;6.15;;;0.90;;
73627;SDS011;61923;51.846;5.856;2022-12-07T00:29:04;1.80;;;0.65;;
73627;SDS011;61923;51.846;5.856;2022-12-07T00:31:37;2.63;;;1.10;;
73627;SDS011;61923;51.846;5.856;2022-12-07T00:34:03;1.02;;;0.50;;
73627;SDS011;61923;51.846;5.856;2022-12-07T00:36:30;0.63;;;0.43;;
73627;SDS011;61923;51.846;5.856;2022-12-07T00:38:57;1.60;;;0.80;;
73627;SDS011;61923;51.846;5.856;2022-12-07T00:41:23;2.25;;;0.80;;
73627;SDS011;61923;51.846;5.856;2022-12-07T00:43:50;2.28;;;0.77;;
73627;SDS011;61923;51.846;5.856;2022-12-07T00:46:17;2.97;;;0.90;;
73627;SDS011;61923;51.846;5.856;2022-12-07T00:48:43;3.17;;;0.80;;
73627;SDS011;61923;51.846;5.856;2022-12-07T00:51:09;2.03;;;0.75;;
73627;SDS011;61923;51.846;5.856;2022-12-07T00:53:37;1.23;;;0.77;;
73627;SDS011;61923;51.846;5.856;2022-12-07T00:56:20;1.77;;;0.68;;
73627;SDS011;61923;51.846;5.856;2022-12-07T00:58:50;1.77;;;0.80;;
73627;SDS011;61923;51.846;5.856;2022-12-07T01:01:17;1.33;;;0.70;;
73627;SDS011;61923;51.846;5.856;2022-12-07T01:03:43;2.53;;;1.00;;
73627;SDS011;61923;51.846;5.856;2022-12-07T01:06:08;2.63;;;0.90;;
73627;SDS011;61923;51.846;5.856;2022-12-07T01:08:33;2.33;;;1.02;;
73627;SDS011;61923;51.846;5.856;2022-12-07T01:11:06;2.75;;;0.82;;
73627;SDS011;61923;51.846;5.856;2022-12-07T01:13:33;1.73;;;0.75;;
73627;SDS011;61923;51.846;5.856;2022-12-07T01:16:00;1.63;;;0.77;;
73627;SDS011;61923;51.846;5.856;2022-12-07T01:18:28;1.92;;;1.02;;
73627;SDS011;61923;51.846;5.856;2022-12-07T01:20:59;1.35;;;0.73;;
73627;SDS011;61923;51.846;5.856;2022-12-07T01:23:26;1.50;;;0.90;;
73627;SDS011;61923;51.846;5.856;2022-12-07T01:25:55;1.95;;;0.85;;
73627;SDS011;61923;51.846;5.856;2022-12-07T01:28:25;2.15;;;0.85;;
73627;SDS011;61923;51.846;5.856;2022-12-07T01:30:55;2.30;;;0.90;;
73627;SDS011;61923;51.846;5.856;2022-12-07T01:33:26;2.72;;;1.13;;
73627;SDS011;61923;51.846;5.856;2022-12-07T01:35:53;3.05;;;1.10;;
73627;SDS011;61923;51.846;5.856;2022-12-07T01:38:19;1.60;;;0.95;;
73627;SDS011;61923;51.846;5.856;2022-12-07T01:40:44;1.63;;;0.82;;
73627;SDS011;61923;51.846;5.856;2022-12-07T01:43:14;2.33;;;0.63;;
73627;SDS011;61923;51.846;5.856;2022-12-07T01:45:43;1.10;;;0.52;;
73627;SDS011;61923;51.846;5.856;2022-12-07T01:48:09;2.65;;;0.80;;
73627;SDS011;61923;51.846;5.856;2022-12-07T01:50:36;1.13;;;0.70;;
73627;SDS011;61923;51.846;5.856;2022-12-07T01:53:04;1.45;;;0.68;;
73627;SDS011;61923;51.846;5.856;2022-12-07T01:55:31;1.27;;;0.63;;
73627;SDS011;61923;51.846;5.856;2022-12-07T01:57:57;1.13;;;0.60;;
73627;SDS011;61923;51.846;5.856;2022-12-07T02:00:23;1.58;;;0.77;;
73627;SDS011;61923;51.846;5.856;2022-12-07T02:05:29;2.42;;;1.02;;
73627;SDS011;61923;51.846;5.856;2022-12-07T02:07:56;1.50;;;0.90;;
73627;SDS011;61923;51.846;5.856;2022-12-07T02:10:28;2.28;;;1.17;;
73627;SDS011;61923;51.846;5.856;2022-12-07T02:13:00;1.40;;;0.65;;
73627;SDS011;61923;51.846;5.856;2022-12-07T02:15:34;1.10;;;0.70;;
73627;SDS011;61923;51.846;5.856;2022-12-07T02:34:48;1.00;;;0.75;;
73627;SDS011;61923;51.846;5.856;2022-12-07T02:37:39;1.85;;;0.90;;
73627;SDS011;61923;51.846;5.856;2022-12-07T02:40:20;1.67;;;0.85;;
73627;SDS011;61923;51.846;5.856;2022-12-07T02:42:50;1.48;;;0.68;;
73627;SDS011;61923;51.846;5.856;2022-12-07T02:45:22;1.45;;;0.70;;
73627;SDS011;61923;51.846;5.856;2022-12-07T02:47:53;1.27;;;0.77;;
73627;SDS011;61923;51.846;5.856;2022-12-07T02:50:23;1.55;;;0.80;;
73627;SDS011;61923;51.846;5.856;2022-12-07T02:52:49;2.55;;;0.85;;
73627;SDS011;61923;51.846;5.856;2022-12-07T02:55:15;1.55;;;0.60;;
73627;SDS011;61923;51.846;5.856;2022-12-07T03:00:54;2.10;;;0.90;;
73627;SDS011;61923;51.846;5.856;2022-12-07T03:03:24;2.22;;;0.90;;
73627;SDS011;61923;51.846;5.856;2022-12-07T03:08:51;1.20;;;0.70;;
73627;SDS011;61923;51.846;5.856;2022-12-07T03:14:02;1.33;;;0.73;;
73627;SDS011;61923;51.846;5.856;2022-12-07T03:16:41;2.15;;;0.80;;
73627;SDS011;61923;51.846;5.856;2022-12-07T03:19:15;1.35;;;0.68;;
73627;SDS011;61923;51.846;5.856;2022-12-07T03:21:44;2.47;;;0.80;;
73627;SDS011;61923;51.846;5.856;2022-12-07T03:24:15;1.40;;;0.80;;
73627;SDS011;61923;51.846;5.856;2022-12-07T03:26:52;1.45;;;0.82;;
73627;SDS011;61923;51.846;5.856;2022-12-07T03:29:34;1.80;;;0.80;;
73627;SDS011;61923;51.846;5.856;2022-12-07T03:32:23;1.45;;;0.75;;
73627;SDS011;61923;51.846;5.856;2022-12-07T03:40:46;1.77;;;0.90;;
73627;SDS011;61923;51.846;5.856;2022-12-07T03:43:17;1.27;;;0.70;;
73627;SDS011;61923;51.846;5.856;2022-12-07T03:45:44;2.85;;;0.77;;
73627;SDS011;61923;51.846;5.856;2022-12-07T03:56:46;1.02;;;0.60;;
73627;SDS011;61923;51.846;5.856;2022-12-07T03:59:14;2.00;;;0.80;;
73627;SDS011;61923;51.846;5.856;2022-12-07T04:01:41;1.63;;;0.80;;
73627;SDS011;61923;51.846;5.856;2022-12-07T04:04:08;2.15;;;0.80;;
73627;SDS011;61923;51.846;5.856;2022-12-07T04:06:33;1.10;;;0.77;;
73627;SDS011;61923;51.846;5.856;2022-12-07T04:08:58;0.90;;;0.57;;
73627;SDS011;61923;51.846;5.856;2022-12-07T04:11:24;1.10;;;0.80;;
73627;SDS011;61923;51.846;5.856;2022-12-07T04:13:49;1.83;;;0.80;;
73627;SDS011;61923;51.846;5.856;2022-12-07T04:16:33;1.15;;;0.60;;
73627;SDS011;61923;51.846;5.856;2022-12-07T04:18:58;1.63;;;0.70;;
73627;SDS011;61923;51.846;5.856;2022-12-07T04:21:24;1.00;;;0.60;;
73627;SDS011;61923;51.846;5.856;2022-12-07T04:23:49;1.20;;;0.60;;
73627;SDS011;61923;51.846;5.856;2022-12-07T04:26:14;1.13;;;0.70;;
73627;SDS011;61923;51.846;5.856;2022-12-07T04:28:40;1.43;;;0.80;;
73627;SDS011;61923;51.846;5.856;2022-12-07T04:31:05;1.57;;;0.80;;
73627;SDS011;61923;51.846;5.856;2022-12-07T04:33:30;1.15;;;0.60;;
73627;SDS011;61923;51.846;5.856;2022-12-07T04:35:56;1.20;;;0.87;;
73627;SDS011;61923;51.846;5.856;2022-12-07T04:38:21;1.07;;;0.70;;
73627;SDS011;61923;51.846;5.856;2022-12-07T04:40:46;1.80;;;0.85;;
73627;SDS011;61923;51.846;5.856;2022-12-07T04:43:12;1.07;;;0.80;;
73627;SDS011;61923;51.846;5.856;2022-12-07T04:45:37;1.70;;;0.70;;
73627;SDS011;61923;51.846;5.856;2022-12-07T04:48:02;1.70;;;0.70;;
73627;SDS011;61923;51.846;5.856;2022-12-07T04:50:28;1.20;;;0.80;;
73627;SDS011;61923;51.846;5.856;2022-12-07T04:52:53;1.93;;;0.77;;
73627;SDS011;61923;51.846;5.856;2022-12-07T04:55:18;2.27;;;0.73;;
73627;SDS011;61923;51.846;5.856;2022-12-07T04:57:44;1.13;;;0.70;;
73627;SDS011;61923;51.846;5.856;2022-12-07T05:00:09;0.97;;;0.60;;
73627;SDS011;61923;51.846;5.856;2022-12-07T05:02:35;2.92;;;0.80;;
73627;SDS011;61923;51.846;5.856;2022-12-07T05:05:00;1.40;;;0.80;;
73627;SDS011;61923;51.846;5.856;2022-12-07T05:07:26;0.90;;;0.60;;
73627;SDS011;61923;51.846;5.856;2022-12-07T05:09:51;1.43;;;0.60;;
73627;SDS011;61923;51.846;5.856;2022-12-07T05:12:16;0.70;;;0.50;;
73627;SDS011;61923;51.846;5.856;2022-12-07T05:14:42;1.40;;;0.70;;
73627;SDS011;61923;51.846;5.856;2022-12-07T05:17:07;1.83;;;0.75;;
73627;SDS011;61923;51.846;5.856;2022-12-07T05:19:33;1.60;;;0.80;;
73627;SDS011;61923;51.846;5.856;2022-12-07T05:21:58;1.43;;;0.60;;
73627;SDS011;61923;51.846;5.856;2022-12-07T05:24:23;1.03;;;0.60;;
73627;SDS011;61923;51.846;5.856;2022-12-07T05:26:49;2.20;;;0.77;;
73627;SDS011;61923;51.846;5.856;2022-12-07T05:29:15;0.97;;;0.67;;
73627;SDS011;61923;51.846;5.856;2022-12-07T05:31:41;1.35;;;0.60;;
73627;SDS011;61923;51.846;5.856;2022-12-07T05:36:33;1.23;;;0.70;;
73627;SDS011;61923;51.846;5.856;2022-12-07T05:38:59;1.20;;;0.57;;
73627;SDS011;61923;51.846;5.856;2022-12-07T05:41:25;1.52;;;0.90;;
73627;SDS011;61923;51.846;5.856;2022-12-07T05:44:09;0.80;;;0.50;;
73627;SDS011;61923;51.846;5.856;2022-12-07T05:46:35;0.90;;;0.70;;
73627;SDS011;61923;51.846;5.856;2022-12-07T05:49:00;1.50;;;0.67;;
73627;SDS011;61923;51.846;5.856;2022-12-07T05:51:26;1.10;;;0.60;;
73627;SDS011;61923;51.846;5.856;2022-12-07T05:53:51;1.05;;;0.60;;
73627;SDS011;61923;51.846;5.856;2022-12-07T05:56:17;0.88;;;0.52;;
73627;SDS011;61923;51.846;5.856;2022-12-07T05:58:42;1.08;;;0.70;;
73627;SDS011;61923;51.846;5.856;2022-12-07T06:01:27;1.42;;;0.80;;
73627;SDS011;61923;51.846;5.856;2022-12-07T06:03:52;1.77;;;0.57;;
73627;SDS011;61923;51.846;5.856;2022-12-07T06:06:18;1.17;;;0.63;;
73627;SDS011;61923;51.846;5.856;2022-12-07T06:08:46;0.73;;;0.52;;
73627;SDS011;61923;51.846;5.856;2022-12-07T06:11:11;1.83;;;0.70;;
73627;SDS011;61923;51.846;5.856;2022-12-07T06:13:55;1.20;;;0.70;;
73627;SDS011;61923;51.846;5.856;2022-12-07T06:16:21;1.03;;;0.50;;
73627;SDS011;61923;51.846;5.856;2022-12-07T06:18:46;1.13;;;0.60;;
73627;SDS011;61923;51.846;5.856;2022-12-07T06:21:11;1.20;;;0.70;;
73627;SDS011;61923;51.846;5.856;2022-12-07T06:23:37;0.80;;;0.50;;
73627;SDS011;61923;51.846;5.856;2022-12-07T06:26:02;1.80;;;0.67;;
73627;SDS011;61923;51.846;5.856;2022-12-07T06:28:27;1.52;;;0.65;;
73627;SDS011;61923;51.846;5.856;2022-12-07T06:30:59;0.80;;;0.53;;
73627;SDS011;61923;51.846;5.856;2022-12-07T06:33:26;1.95;;;0.80;;
73627;SDS011;61923;51.846;5.856;2022-12-07T06:35:51;0.70;;;0.60;;
73627;SDS011;61923;51.846;5.856;2022-12-07T06:38:17;0.80;;;0.50;;
73627;SDS011;61923;51.846;5.856;2022-12-07T06:40:42;1.02;;;0.60;;
73627;SDS011;61923;51.846;5.856;2022-12-07T06:43:08;1.90;;;0.60;;
73627;SDS011;61923;51.846;5.856;2022-12-07T06:45:33;1.25;;;0.52;;
73627;SDS011;61923;51.846;5.856;2022-12-07T06:47:59;1.20;;;0.70;;
73627;SDS011;61923;51.846;5.856;2022-12-07T06:50:24;1.45;;;0.60;;
73627;SDS011;61923;51.846;5.856;2022-12-07T06:52:50;1.52;;;0.70;;
73627;SDS011;61923;51.846;5.856;2022-12-07T06:55:16;1.33;;;0.70;;
73627;SDS011;61923;51.846;5.856;2022-12-07T06:57:41;0.50;;;0.50;;
73627;SDS011;61923;51.846;5.856;2022-12-07T07:00:07;1.10;;;0.50;;
73627;SDS011;61923;51.846;5.856;2022-12-07T07:02:33;1.42;;;0.70;;
73627;SDS011;61923;51.846;5.856;2022-12-07T07:04:58;1.25;;;0.60;;
73627;SDS011;61923;51.846;5.856;2022-12-07T07:07:24;1.10;;;0.60;;
73627;SDS011;61923;51.846;5.856;2022-12-07T07:09:49;0.80;;;0.53;;
73627;SDS011;61923;51.846;5.856;2022-12-07T07:12:14;0.57;;;0.40;;
73627;SDS011;61923;51.846;5.856;2022-12-07T07:14:40;1.27;;;0.65;;
73627;SDS011;61923;51.846;5.856;2022-12-07T07:17:05;0.93;;;0.53;;
73627;SDS011;61923;51.846;5.856;2022-12-07T07:19:30;0.77;;;0.60;;
73627;SDS011;61923;51.846;5.856;2022-12-07T07:21:56;0.73;;;0.50;;
73627;SDS011;61923;51.846;5.856;2022-12-07T07:24:21;1.10;;;0.55;;
73627;SDS011;61923;51.846;5.856;2022-12-07T07:26:46;1.87;;;0.70;;
73627;SDS011;61923;51.846;5.856;2022-12-07T07:29:12;1.20;;;0.67;;
73627;SDS011;61923;51.846;5.856;2022-12-07T07:31:37;3.33;;;0.97;;
73627;SDS011;61923;51.846;5.856;2022-12-07T07:34:02;3.93;;;1.40;;
73627;SDS011;61923;51.846;5.856;2022-12-07T07:36:28;2.88;;;1.17;;
73627;SDS011;61923;51.846;5.856;2022-12-07T07:38:53;5.27;;;1.13;;
73627;SDS011;61923;51.846;5.856;2022-12-07T07:41:19;5.40;;;1.23;;
73627;SDS011;61923;51.846;5.856;2022-12-07T07:43:44;4.78;;;1.60;;
73627;SDS011;61923;51.846;5.856;2022-12-07T07:46:09;3.83;;;1.20;;
73627;SDS011;61923;51.846;5.856;2022-12-07T07:48:35;3.35;;;1.20;;
73627;SDS011;61923;51.846;5.856;2022-12-07T07:51:00;2.50;;;1.00;;
73627;SDS011;61923;51.846;5.856;2022-12-07T07:53:30;3.35;;;1.27;;
73627;SDS011;61923;51.846;5.856;2022-12-07T07:55:55;3.57;;;1.30;;
73627;SDS011;61923;51.846;5.856;2022-12-07T07:58:21;2.42;;;1.17;;
73627;SDS011;61923;51.846;5.856;2022-12-07T08:00:47;4.18;;;1.30;;
73627;SDS011;61923;51.846;5.856;2022-12-07T08:03:12;3.92;;;1.48;;
73627;SDS011;61923;51.846;5.856;2022-12-07T08:05:38;4.60;;;1.17;;
73627;SDS011;61923;51.846;5.856;2022-12-07T08:08:03;4.70;;;1.42;;
73627;SDS011;61923;51.846;5.856;2022-12-07T08:10:29;2.92;;;1.48;;
73627;SDS011;61923;51.846;5.856;2022-12-07T08:12:57;3.30;;;1.52;;
73627;SDS011;61923;51.846;5.856;2022-12-07T08:15:45;3.53;;;1.40;;
73627;SDS011;61923;51.846;5.856;2022-12-07T08:18:13;4.38;;;1.73;;
73627;SDS011;61923;51.846;5.856;2022-12-07T08:20:40;5.28;;;1.35;;
73627;SDS011;61923;51.846;5.856;2022-12-07T08:23:08;5.93;;;2.15;;
73627;SDS011;61923;51.846;5.856;2022-12-07T08:25:35;6.40;;;1.67;;
73627;SDS011;61923;51.846;5.856;2022-12-07T08:28:01;4.38;;;2.08;;
73627;SDS011;61923;51.846;5.856;2022-12-07T08:30:26;3.50;;;1.45;;
73627;SDS011;61923;51.846;5.856;2022-12-07T08:32:53;5.60;;;1.80;;
73627;SDS011;61923;51.846;5.856;2022-12-07T08:35:19;4.72;;;1.33;;
73627;SDS011;61923;51.846;5.856;2022-12-07T08:37:44;3.70;;;1.40;;
73627;SDS011;61923;51.846;5.856;2022-12-07T08:40:11;4.93;;;1.42;;
73627;SDS011;61923;51.846;5.856;2022-12-07T08:42:40;3.45;;;1.35;;
73627;SDS011;61923;51.846;5.856;2022-12-07T08:45:08;3.63;;;1.35;;
73627;SDS011;61923;51.846;5.856;2022-12-07T08:47:36;4.43;;;1.73;;
73627;SDS011;61923;51.846;5.856;2022-12-07T08:50:04;4.57;;;1.35;;
73627;SDS011;61923;51.846;5.856;2022-12-07T08:52:32;3.45;;;1.35;;
73627;SDS011;61923;51.846;5.856;2022-12-07T08:54:59;4.78;;;1.30;;
73627;SDS011;61923;51.846;5.856;2022-12-07T08:57:26;4.68;;;1.70;;
73627;SDS011;61923;51.846;5.856;2022-12-07T08:59:53;4.75;;;1.67;;
73627;SDS011;61923;51.846;5.856;2022-12-07T09:02:18;2.65;;;1.02;;
73627;SDS011;61923;51.846;5.856;2022-12-07T09:04:44;4.18;;;1.40;;
73627;SDS011;61923;51.846;5.856;2022-12-07T09:07:09;3.40;;;1.60;;
73627;SDS011;61923;51.846;5.856;2022-12-07T09:09:35;3.67;;;1.00;;
73627;SDS011;61923;51.846;5.856;2022-12-07T09:12:00;3.15;;;1.17;;
73627;SDS011;61923;51.846;5.856;2022-12-07T09:14:25;4.13;;;1.33;;
73627;SDS011;61923;51.846;5.856;2022-12-07T09:16:51;2.83;;;1.13;;
73627;SDS011;61923;51.846;5.856;2022-12-07T09:19:16;4.00;;;1.40;;
73627;SDS011;61923;51.846;5.856;2022-12-07T09:21:42;4.20;;;1.30;;
73627;SDS011;61923;51.846;5.856;2022-12-07T09:24:07;4.87;;;1.50;;
73627;SDS011;61923;51.846;5.856;2022-12-07T09:26:34;5.43;;;1.27;;
73627;SDS011;61923;51.846;5.856;2022-12-07T09:29:00;3.00;;;1.30;;
73627;SDS011;61923;51.846;5.856;2022-12-07T09:31:26;3.28;;;1.38;;
73627;SDS011;61923;51.846;5.856;2022-12-07T09:33:55;3.53;;;1.20;;
73627;SDS011;61923;51.846;5.856;2022-12-07T09:36:21;3.90;;;1.50;;
73627;SDS011;61923;51.846;5.856;2022-12-07T09:38:47;4.38;;;1.40;;
73627;SDS011;61923;51.846;5.856;2022-12-07T09:41:12;3.30;;;1.37;;
73627;SDS011;61923;51.846;5.856;2022-12-07T09:43:37;3.40;;;1.20;;
73627;SDS011;61923;51.846;5.856;2022-12-07T09:46:05;2.47;;;1.00;;
73627;SDS011;61923;51.846;5.856;2022-12-07T09:48:32;3.28;;;1.30;;
73627;SDS011;61923;51.846;5.856;2022-12-07T09:51:12;2.47;;;1.08;;
73627;SDS011;61923;51.846;5.856;2022-12-07T09:53:41;4.78;;;1.30;;
73627;SDS011;61923;51.846;5.856;2022-12-07T09:56:08;2.70;;;1.20;;
73627;SDS011;61923;51.846;5.856;2022-12-07T09:58:37;3.13;;;0.95;;
73627;SDS011;61923;51.846;5.856;2022-12-07T10:01:16;3.17;;;1.27;;
73627;SDS011;61923;51.846;5.856;2022-12-07T10:03:54;3.92;;;1.33;;
73627;SDS011;61923;51.846;5.856;2022-12-07T10:06:23;1.95;;;1.10;;
73627;SDS011;61923;51.846;5.856;2022-12-07T10:08:49;2.53;;;1.02;;
73627;SDS011;61923;51.846;5.856;2022-12-07T10:11:14;2.37;;;0.80;;
73627;SDS011;61923;51.846;5.856;2022-12-07T10:13:45;2.65;;;1.20;;
73627;SDS011;61923;51.846;5.856;2022-12-07T10:19:18;1.52;;;0.90;;
73627;SDS011;61923;51.846;5.856;2022-12-07T10:24:36;2.15;;;1.00;;
73627;SDS011;61923;51.846;5.856;2022-12-07T10:27:11;2.92;;;1.20;;
73627;SDS011;61923;51.846;5.856;2022-12-07T10:29:55;2.42;;;1.15;;
73627;SDS011;61923;51.846;5.856;2022-12-07T10:37:53;2.47;;;1.08;;
73627;SDS011;61923;51.846;5.856;2022-12-07T10:40:25;1.90;;;0.90;;
73627;SDS011;61923;51.846;5.856;2022-12-07T10:43:04;3.08;;;1.30;;
73627;SDS011;61923;51.846;5.856;2022-12-07T10:45:34;1.92;;;0.93;;
73627;SDS011;61923;51.846;5.856;2022-12-07T10:48:16;2.92;;;0.98;;
73627;SDS011;61923;51.846;5.856;2022-12-07T10:53:51;2.47;;;1.10;;
73627;SDS011;61923;51.846;5.856;2022-12-07T11:01:48;2.30;;;0.98;;
73627;SDS011;61923;51.846;5.856;2022-12-07T11:07:07;2.53;;;1.55;;
73627;SDS011;61923;51.846;5.856;2022-12-07T11:12:33;1.67;;;0.82;;
73627;SDS011;61923;51.846;5.856;2022-12-07T11:15:08;2.00;;;0.98;;
73627;SDS011;61923;51.846;5.856;2022-12-07T11:18:06;2.60;;;1.02;;
73627;SDS011;61923;51.846;5.856;2022-12-07T11:20:48;2.53;;;0.80;;
73627;SDS011;61923;51.846;5.856;2022-12-07T11:35:00;1.77;;;0.90;;
73627;SDS011;61923;51.846;5.856;2022-12-07T11:37:35;1.48;;;0.77;;
73627;SDS011;61923;51.846;5.856;2022-12-07T11:40:04;1.80;;;0.90;;
73627;SDS011;61923;51.846;5.856;2022-12-07T11:43:01;2.72;;;0.80;;
73627;SDS011;61923;51.846;5.856;2022-12-07T11:45:46;2.55;;;0.95;;
73627;SDS011;61923;51.846;5.856;2022-12-07T11:50:48;3.22;;;1.00;;
73627;SDS011;61923;51.846;5.856;2022-12-07T11:53:20;3.13;;;1.00;;
73627;SDS011;61923;51.846;5.856;2022-12-07T12:01:21;1.25;;;0.70;;
73627;SDS011;61923;51.846;5.856;2022-12-07T12:04:02;2.97;;;1.10;;
73627;SDS011;61923;51.846;5.856;2022-12-07T12:06:37;2.28;;;1.52;;
73627;SDS011;61923;51.846;5.856;2022-12-07T12:11:54;3.22;;;0.93;;
73627;SDS011;61923;51.846;5.856;2022-12-07T12:22:53;2.50;;;1.00;;
73627;SDS011;61923;51.846;5.856;2022-12-07T12:25:40;1.95;;;0.90;;
73627;SDS011;61923;51.846;5.856;2022-12-07T12:31:16;1.80;;;0.90;;
73627;SDS011;61923;51.846;5.856;2022-12-07T12:34:00;1.50;;;0.65;;
73627;SDS011;61923;51.846;5.856;2022-12-07T12:50:10;2.10;;;0.80;;
73627;SDS011;61923;51.846;5.856;2022-12-07T12:57:32;1.53;;;0.60;;
73627;SDS011;61923;51.846;5.856;2022-12-07T12:59:58;1.65;;;0.75;;
73627;SDS011;61923;51.846;5.856;2022-12-07T13:02:26;2.65;;;0.85;;
73627;SDS011;61923;51.846;5.856;2022-12-07T13:13:02;1.98;;;0.80;;
73627;SDS011;61923;51.846;5.856;2022-12-07T13:15:43;1.60;;;0.70;;
73627;SDS011;61923;51.846;5.856;2022-12-07T13:28:43;1.45;;;0.60;;
73627;SDS011;61923;51.846;5.856;2022-12-07T13:31:14;1.85;;;0.60;;
73627;SDS011;61923;51.846;5.856;2022-12-07T13:33:46;1.23;;;0.60;;
73627;SDS011;61923;51.846;5.856;2022-12-07T13:36:22;3.60;;;0.68;;
73627;SDS011;61923;51.846;5.856;2022-12-07T13:38:59;1.58;;;0.70;;
73627;SDS011;61923;51.846;5.856;2022-12-07T13:41:35;1.52;;;0.50;;
73627;SDS011;61923;51.846;5.856;2022-12-07T13:44:02;3.13;;;0.60;;
73627;SDS011;61923;51.846;5.856;2022-12-07T13:49:24;0.95;;;0.50;;
73627;SDS011;61923;51.846;5.856;2022-12-07T13:51:52;1.75;;;0.73;;
73627;SDS011;61923;51.846;5.856;2022-12-07T13:54:19;1.52;;;0.55;;
73627;SDS011;61923;51.846;5.856;2022-12-07T13:56:52;1.50;;;0.77;;
73627;SDS011;61923;51.846;5.856;2022-12-07T13:59:24;1.40;;;0.47;;
73627;SDS011;61923;51.846;5.856;2022-12-07T14:01:52;0.90;;;0.63;;
73627;SDS011;61923;51.846;5.856;2022-12-07T14:06:47;1.57;;;0.67;;
73627;SDS011;61923;51.846;5.856;2022-12-07T14:09:18;1.80;;;0.50;;
73627;SDS011;61923;51.846;5.856;2022-12-07T14:11:47;1.27;;;0.40;;
73627;SDS011;61923;51.846;5.856;2022-12-07T14:14:35;0.93;;;0.70;;
73627;SDS011;61923;51.846;5.856;2022-12-07T14:17:15;3.58;;;0.88;;
73627;SDS011;61923;51.846;5.856;2022-12-07T14:20:02;1.60;;;0.63;;
73627;SDS011;61923;51.846;5.856;2022-12-07T14:22:33;1.55;;;0.50;;
73627;SDS011;61923;51.846;5.856;2022-12-07T14:27:37;1.10;;;0.60;;
73627;SDS011;61923;51.846;5.856;2022-12-07T14:30:03;2.20;;;0.70;;
73627;SDS011;61923;51.846;5.856;2022-12-07T14:32:30;0.60;;;0.40;;
73627;SDS011;61923;51.846;5.856;2022-12-07T14:35:00;1.88;;;0.70;;
73627;SDS011;61923;51.846;5.856;2022-12-07T14:37:29;1.05;;;0.70;;
73627;SDS011;61923;51.846;5.856;2022-12-07T14:39:55;1.88;;;0.70;;
73627;SDS011;61923;51.846;5.856;2022-12-07T14:44:48;1.13;;;0.60;;
73627;SDS011;61923;51.846;5.856;2022-12-07T14:47:13;0.98;;;0.70;;
73627;SDS011;61923;51.846;5.856;2022-12-07T14:49:39;1.57;;;0.57;;
73627;SDS011;61923;51.846;5.856;2022-12-07T14:54:35;1.42;;;0.60;;
73627;SDS011;61923;51.846;5.856;2022-12-07T14:57:01;1.25;;;0.68;;
73627;SDS011;61923;51.846;5.856;2022-12-07T14:59:26;0.80;;;0.50;;
73627;SDS011;61923;51.846;5.856;2022-12-07T15:01:52;1.60;;;0.80;;
73627;SDS011;61923;51.846;5.856;2022-12-07T15:04:17;1.45;;;0.60;;
73627;SDS011;61923;51.846;5.856;2022-12-07T15:06:53;0.98;;;0.70;;
73627;SDS011;61923;51.846;5.856;2022-12-07T15:09:21;1.00;;;0.50;;
73627;SDS011;61923;51.846;5.856;2022-12-07T15:11:46;0.97;;;0.53;;
73627;SDS011;61923;51.846;5.856;2022-12-07T15:14:11;1.43;;;0.60;;
73627;SDS011;61923;51.846;5.856;2022-12-07T15:16:38;1.05;;;0.52;;
73627;SDS011;61923;51.846;5.856;2022-12-07T15:19:09;0.85;;;0.60;;
73627;SDS011;61923;51.846;5.856;2022-12-07T15:21:37;1.25;;;0.50;;
73627;SDS011;61923;51.846;5.856;2022-12-07T15:24:03;1.38;;;0.63;;
73627;SDS011;61923;51.846;5.856;2022-12-07T15:26:28;1.25;;;0.60;;
73627;SDS011;61923;51.846;5.856;2022-12-07T15:28:54;1.33;;;0.60;;
73627;SDS011;61923;51.846;5.856;2022-12-07T15:31:19;1.75;;;0.68;;
73627;SDS011;61923;51.846;5.856;2022-12-07T15:33:45;0.87;;;0.57;;
73627;SDS011;61923;51.846;5.856;2022-12-07T15:36:20;2.43;;;0.77;;
73627;SDS011;61923;51.846;5.856;2022-12-07T15:38:48;1.90;;;0.70;;
73627;SDS011;61923;51.846;5.856;2022-12-07T15:41:13;1.27;;;0.60;;
73627;SDS011;61923;51.846;5.856;2022-12-07T15:43:39;1.50;;;0.60;;
73627;SDS011;61923;51.846;5.856;2022-12-07T15:46:22;1.50;;;0.73;;
73627;SDS011;61923;51.846;5.856;2022-12-07T15:48:48;1.07;;;0.57;;
73627;SDS011;61923;51.846;5.856;2022-12-07T15:51:13;0.80;;;0.50;;
73627;SDS011;61923;51.846;5.856;2022-12-07T15:53:39;1.17;;;0.45;;
73627;SDS011;61923;51.846;5.856;2022-12-07T15:56:07;0.95;;;0.70;;
73627;SDS011;61923;51.846;5.856;2022-12-07T15:58:33;1.08;;;0.60;;
73627;SDS011;61923;51.846;5.856;2022-12-07T16:00:59;1.77;;;0.70;;
73627;SDS011;61923;51.846;5.856;2022-12-07T16:03:24;1.52;;;0.60;;
73627;SDS011;61923;51.846;5.856;2022-12-07T16:05:51;1.00;;;0.50;;
73627;SDS011;61923;51.846;5.856;2022-12-07T16:08:18;0.75;;;0.50;;
73627;SDS011;61923;51.846;5.856;2022-12-07T16:10:43;1.00;;;0.43;;
73627;SDS011;61923;51.846;5.856;2022-12-07T16:13:09;1.00;;;0.73;;
73627;SDS011;61923;51.846;5.856;2022-12-07T16:15:39;2.22;;;0.70;;
73627;SDS011;61923;51.846;5.856;2022-12-07T16:18:05;1.20;;;0.70;;
73627;SDS011;61923;51.846;5.856;2022-12-07T16:20:31;1.13;;;0.55;;
73627;SDS011;61923;51.846;5.856;2022-12-07T16:22:56;0.95;;;0.50;;
73627;SDS011;61923;51.846;5.856;2022-12-07T16:25:22;1.13;;;0.60;;
73627;SDS011;61923;51.846;5.856;2022-12-07T16:27:47;1.50;;;0.50;;
73627;SDS011;61923;51.846;5.856;2022-12-07T16:30:13;1.30;;;0.50;;
73627;SDS011;61923;51.846;5.856;2022-12-07T16:32:41;1.38;;;0.60;;
73627;SDS011;61923;51.846;5.856;2022-12-07T16:35:06;1.00;;;0.57;;
73627;SDS011;61923;51.846;5.856;2022-12-07T16:37:32;0.70;;;0.50;;
73627;SDS011;61923;51.846;5.856;2022-12-07T16:39:58;1.57;;;0.60;;
73627;SDS011;61923;51.846;5.856;2022-12-07T16:42:23;2.17;;;0.80;;
73627;SDS011;61923;51.846;5.856;2022-12-07T16:44:48;1.40;;;0.70;;
73627;SDS011;61923;51.846;5.856;2022-12-07T16:47:14;0.53;;;0.47;;
73627;SDS011;61923;51.846;5.856;2022-12-07T16:49:39;1.58;;;0.60;;
73627;SDS011;61923;51.846;5.856;2022-12-07T16:52:05;1.63;;;0.60;;
73627;SDS011;61923;51.846;5.856;2022-12-07T16:54:30;0.70;;;0.40;;
73627;SDS011;61923;51.846;5.856;2022-12-07T16:56:58;0.60;;;0.50;;
73627;SDS011;61923;51.846;5.856;2022-12-07T16:59:23;0.98;;;0.50;;
73627;SDS011;61923;51.846;5.856;2022-12-07T17:01:51;1.63;;;0.55;;
73627;SDS011;61923;51.846;5.856;2022-12-07T17:04:16;1.40;;;0.60;;
73627;SDS011;61923;51.846;5.856;2022-12-07T17:06:42;1.33;;;0.63;;
73627;SDS011;61923;51.846;5.856;2022-12-07T17:09:09;1.58;;;0.52;;
73627;SDS011;61923;51.846;5.856;2022-12-07T17:11:37;2.05;;;0.57;;
73627;SDS011;61923;51.846;5.856;2022-12-07T17:14:03;0.75;;;0.45;;
73627;SDS011;61923;51.846;5.856;2022-12-07T17:16:47;1.35;;;0.43;;
73627;SDS011;61923;51.846;5.856;2022-12-07T17:19:13;0.60;;;0.50;;
73627;SDS011;61923;51.846;5.856;2022-12-07T17:21:41;0.50;;;0.43;;
73627;SDS011;61923;51.846;5.856;2022-12-07T17:24:08;0.80;;;0.40;;
73627;SDS011;61923;51.846;5.856;2022-12-07T17:26:36;0.85;;;0.52;;
73627;SDS011;61923;51.846;5.856;2022-12-07T17:31:28;1.40;;;0.60;;
73627;SDS011;61923;51.846;5.856;2022-12-07T17:33:54;0.85;;;0.40;;